Pence Springs, West Virginia
Current Conditions -  °F | °C
As of 9:15 AM on Thursday 29 Jan 2015 (Local Time) from KLWB Reporting Station
Clear Clear  
Wind Chill: 21°   Ceiling: Unl
Heat Index: 27°   Visibility: 10mi
Dew Point: 20°   Wind: 5mph
Humidity: 76%   Direction: 30°NNE
Pressure: 30.15"   Gusts: NA
Location:  37.68°N, 80.73°W
Report Text: KLWB 291415Z AUTO 03004KT 10SM CLR M03/M07 A3015 RMK AO2 T10301067
Loading
Personal Weather Stations






























Interactive Weather Map New forecast layout! Learn more

10-Day Weather Forecast

Advertisements
Track Severe Weather on mobile